Time;durP1;ratioP1;P1;durP2;ratioP2;P2;SDS_P1;SDS_P2;PMS_P1;PMS_P2;Temp;Humidity;BMP_temperature;BMP_pressure;BME280_temperature;BME280_humidity;BME280_pressure;Samples;Min_cycle;Max_cycle;Signal;HPM_P1;HPM_P2
2023/10/30 04:58:41;;;;;;;4.87;1.80;;;;;;;13.32;100.00;99914.31;5770338;27;20136;-86
2023/10/30 05:01:45;;;;;;;2.05;1.77;;;;;;;13.21;100.00;99920.28;5313774;33;33896;-85
2023/10/30 05:04:48;;;;;;;5.07;2.10;;;;;;;13.25;100.00;99919.72;5305363;33;34427;-85
2023/10/30 05:07:51;;;;;;;3.78;2.00;;;;;;;13.25;100.00;99924.22;5314281;33;34120;-85
2023/10/30 05:10:54;;;;;;;4.10;1.92;;;;;;;13.11;100.00;99929.62;5312428;33;33885;-85
2023/10/30 05:13:57;;;;;;;4.65;2.37;;;;;;;13.06;100.00;99923.19;5301060;33;33815;-85
2023/10/30 05:17:00;;;;;;;9.98;2.72;;;;;;;13.15;100.00;99921.94;5300740;33;33274;-85
2023/10/30 05:20:04;;;;;;;5.87;2.25;;;;;;;13.16;100.00;99918.19;5312435;33;33746;-85
2023/10/30 05:23:08;;;;;;;4.90;2.40;;;;;;;13.24;100.00;99919.88;5312530;33;33362;-85
2023/10/30 05:26:11;;;;;;;2.62;2.28;;;;;;;13.20;100.00;99932.16;5314031;33;33748;-84
2023/10/30 05:29:15;;;;;;;4.32;2.05;;;;;;;13.36;100.00;99932.59;5330416;33;34014;-85
2023/10/30 05:32:17;;;;;;;5.97;1.95;;;;;;;13.39;100.00;99940.28;5316595;33;33734;-84
2023/10/30 05:35:20;;;;;;;4.32;1.87;;;;;;;13.46;100.00;99937.59;5315622;33;34030;-85
2023/10/30 05:38:24;;;;;;;3.42;1.92;;;;;;;13.44;100.00;99938.84;5317770;33;34105;-85
2023/10/30 05:41:26;;;;;;;3.53;1.80;;;;;;;13.43;100.00;99951.53;5327642;33;34650;-85
2023/10/30 05:44:30;;;;;;;3.85;1.83;;;;;;;13.31;100.00;99951.34;5327274;33;33867;-84
2023/10/30 05:47:33;;;;;;;2.17;1.98;;;;;;;13.34;100.00;99958.19;5313976;33;33814;-85
2023/10/30 05:50:36;;;;;;;3.67;1.98;;;;;;;13.27;100.00;99960.88;5307589;33;33669;-84
2023/10/30 05:53:39;;;;;;;3.65;2.30;;;;;;;13.33;100.00;99957.34;5296595;33;34178;-84
2023/10/30 05:56:42;;;;;;;6.50;2.10;;;;;;;13.29;100.00;99966.91;5311257;33;34571;-82
2023/10/30 05:59:45;;;;;;;5.47;2.58;;;;;;;13.20;100.00;99975.41;5295484;33;34526;-83
2023/10/30 06:02:48;;;;;;;3.65;1.77;;;;;;;13.22;100.00;99971.47;5309819;33;34557;-83
2023/10/30 06:05:51;;;;;;;2.42;1.80;;;;;;;13.16;100.00;99977.66;5308499;33;33987;-83
2023/10/30 06:08:54;;;;;;;3.85;2.12;;;;;;;13.07;100.00;99982.41;5314648;33;34099;-83
2023/10/30 06:11:57;;;;;;;6.90;1.85;;;;;;;13.09;100.00;99987.63;5316582;33;35378;-83
2023/10/30 06:15:00;;;;;;;3.12;2.17;;;;;;;13.23;100.00;99994.75;5309397;33;34040;-83
2023/10/30 06:18:04;;;;;;;3.28;1.87;;;;;;;13.22;100.00;99987.69;5297696;33;34324;-83
2023/10/30 06:21:07;;;;;;;2.60;1.90;;;;;;;13.18;100.00;99994.50;5305076;33;33961;-83
2023/10/30 06:24:11;;;;;;;14.00;2.95;;;;;;;13.27;100.00;99990.59;5325410;33;34302;-83
2023/10/30 06:27:14;;;;;;;5.50;2.37;;;;;;;13.37;100.00;99974.84;5318968;33;34212;-82
2023/10/30 06:30:17;;;;;;;5.28;2.00;;;;;;;13.64;100.00;99976.72;5309577;33;34795;-83
2023/10/30 06:33:20;;;;;;;4.62;1.73;;;;;;;13.86;100.00;99980.88;5296240;33;33912;-83
2023/10/30 06:36:24;;;;;;;8.05;2.00;;;;;;;14.09;100.00;99993.16;5307951;33;34771;-82
2023/10/30 06:39:27;;;;;;;4.85;2.03;;;;;;;14.17;100.00;99991.06;5307172;33;33859;-82
2023/10/30 06:42:30;;;;;;;3.30;1.75;;;;;;;14.29;100.00;99994.78;5308420;33;33550;-83
2023/10/30 06:45:33;;;;;;;3.33;1.77;;;;;;;14.39;100.00;99994.34;5297299;33;34498;-84
2023/10/30 06:48:36;;;;;;;4.82;2.05;;;;;;;14.43;100.00;99994.75;5297103;33;34492;-84
2023/10/30 06:51:39;;;;;;;6.57;2.53;;;;;;;14.50;100.00;100004.50;5296425;33;33483;-84
2023/10/30 06:54:43;;;;;;;2.47;1.80;;;;;;;14.55;100.00;100003.91;5310347;33;34680;-84
2023/10/30 06:57:46;;;;;;;5.53;1.80;;;;;;;14.75;100.00;100009.28;5296751;33;35385;-89
2023/10/30 07:00:50;;;;;;;2.90;1.62;;;;;;;14.96;100.00;100006.25;5308856;33;34986;-89
2023/10/30 07:03:53;;;;;;;6.05;1.67;;;;;;;15.16;100.00;100014.28;5319321;33;33812;-89
2023/10/30 07:06:56;;;;;;;3.45;2.05;;;;;;;15.22;100.00;100009.87;5309147;33;35417;-86
2023/10/30 07:10:01;;;;;;;2.75;1.95;;;;;;;15.31;100.00;100024.03;5297093;33;34419;-85
2023/10/30 07:13:04;;;;;;;4.43;1.92;;;;;;;15.09;100.00;100016.22;5307076;33;34214;-85
2023/10/30 07:16:07;;;;;;;4.68;1.90;;;;;;;15.19;100.00;100010.31;5312319;33;35441;-85
2023/10/30 07:19:10;;;;;;;2.08;1.83;;;;;;;15.35;100.00;100017.09;5309910;33;33930;-85
2023/10/30 07:22:13;;;;;;;3.90;1.90;;;;;;;15.47;100.00;100009.09;5296192;33;34101;-85
2023/10/30 07:25:16;;;;;;;5.18;1.83;;;;;;;15.54;100.00;100009.91;5309286;33;34343;-85
2023/10/30 07:28:19;;;;;;;5.07;2.67;;;;;;;15.78;100.00;100022.69;5310641;33;33632;-85
2023/10/30 07:31:23;;;;;;;3.45;2.22;;;;;;;15.88;100.00;100030.31;5310534;33;33883;-85
2023/10/30 07:34:26;;;;;;;4.20;2.08;;;;;;;15.93;100.00;100027.78;5312735;33;34693;-84
2023/10/30 07:37:29;;;;;;;6.00;2.62;;;;;;;16.07;100.00;100025.78;5307146;33;34301;-85
2023/10/30 07:40:32;;;;;;;5.00;2.30;;;;;;;16.27;100.00;100033.75;5286510;33;34349;-85
2023/10/30 07:43:35;;;;;;;5.75;1.60;;;;;;;16.44;100.00;100026.69;5293840;33;33924;-85
2023/10/30 07:46:38;;;;;;;4.00;2.05;;;;;;;16.59;96.81;100031.75;5301188;33;33944;-85
2023/10/30 07:49:44;;;;;;;5.45;2.40;;;;;;;16.74;96.88;100028.66;5292727;33;33496;-85
2023/10/30 07:52:47;;;;;;;4.55;2.08;;;;;;;16.89;94.53;100033.75;5284105;33;34664;-84
2023/10/30 07:55:52;;;;;;;8.00;2.40;;;;;;;17.12;93.52;100025.72;5283330;33;33768;-85
2023/10/30 07:58:55;;;;;;;4.37;1.87;;;;;;;17.19;94.97;100020.19;5306389;33;33914;-85
2023/10/30 08:02:00;;;;;;;3.53;1.92;;;;;;;17.29;91.79;100020.47;5309022;33;33498;-85
2023/10/30 08:05:06;;;;;;;8.02;2.35;;;;;;;17.42;91.98;100024.88;5296194;33;33876;-84
2023/10/30 08:08:09;;;;;;;3.72;1.62;;;;;;;17.57;88.35;100038.06;5308116;33;33804;-84
2023/10/30 08:11:13;;;;;;;3.33;2.00;;;;;;;17.68;84.51;100018.22;5291004;33;35172;-85
2023/10/30 08:14:16;;;;;;;4.47;2.15;;;;;;;17.67;85.73;100022.84;5296051;33;33661;-85
2023/10/30 08:17:19;;;;;;;3.80;1.48;;;;;;;17.79;89.60;100024.78;5293118;33;33960;-85
2023/10/30 08:20:22;;;;;;;2.70;1.48;;;;;;;18.12;86.80;100016.87;5308110;33;34605;-84
2023/10/30 08:23:25;;;;;;;3.75;1.85;;;;;;;18.43;80.97;100017.59;5295915;33;35608;-84
2023/10/30 08:26:29;;;;;;;6.50;2.03;;;;;;;18.68;79.69;100020.03;5310972;33;33773;-85
2023/10/30 08:29:32;;;;;;;4.35;1.58;;;;;;;18.81;78.08;100002.63;5295699;33;34392;-85
2023/10/30 08:32:37;;;;;;;3.87;1.77;;;;;;;18.88;75.36;100002.50;5307040;33;35148;-85
2023/10/30 08:35:40;;;;;;;5.47;1.85;;;;;;;18.79;76.95;100002.03;5318120;33;34137;-85
2023/10/30 08:38:43;;;;;;;3.65;1.80;;;;;;;19.07;76.26;100001.25;5305845;33;34314;-84
2023/10/30 08:41:47;;;;;;;4.43;1.65;;;;;;;19.37;76.30;100001.00;5318832;33;34883;-85
2023/10/30 08:44:50;;;;;;;2.12;1.55;;;;;;;19.58;75.01;99998.63;5309035;33;33877;-84
2023/10/30 08:47:53;;;;;;;3.22;1.73;;;;;;;19.59;71.79;100003.81;5298597;33;34005;-84
2023/10/30 08:51:13;;;;;;;1.50;1.30;;;;;;;19.69;72.80;99997.75;5296013;33;34351;-84
2023/10/30 08:54:18;;;;;;;1.80;1.17;;;;;;;19.65;71.76;99994.66;5304422;33;34771;-84
2023/10/30 08:57:21;;;;;;;7.57;1.62;;;;;;;19.80;72.28;99987.81;5309505;33;34544;-89
2023/10/30 09:00:24;;;;;;;2.45;1.30;;;;;;;19.86;74.12;99984.09;5318014;33;34788;-89
2023/10/30 09:03:27;;;;;;;3.22;1.40;;;;;;;20.01;72.04;99989.00;5294807;33;33577;-88
2023/10/30 09:06:32;;;;;;;4.25;1.65;;;;;;;20.24;72.70;99996.16;5312394;33;33576;-85
2023/10/30 09:09:35;;;;;;;3.58;1.58;;;;;;;20.21;71.69;99981.09;5336109;33;34542;-85
2023/10/30 09:12:38;;;;;;;3.78;1.48;;;;;;;20.34;70.76;99972.53;5296643;33;35320;-85
2023/10/30 09:15:42;;;;;;;3.28;1.17;;;;;;;20.37;69.70;99972.00;5289843;33;34052;-85
2023/10/30 09:18:45;;;;;;;2.92;1.33;;;;;;;20.53;69.39;99985.91;5279418;33;34316;-85
2023/10/30 09:21:48;;;;;;;4.78;1.77;;;;;;;20.57;72.53;99987.09;5284654;33;34641;-84
2023/10/30 09:24:51;;;;;;;2.85;1.50;;;;;;;21.03;67.99;99996.69;5301159;33;34772;-84
2023/10/30 09:27:57;;;;;;;1.40;1.20;;;;;;;21.22;66.96;100001.81;5297616;33;34018;-85
2023/10/30 09:31:00;;;;;;;8.65;1.77;;;;;;;21.53;65.46;99994.78;5297565;33;33498;-84
2023/10/30 09:34:03;;;;;;;3.95;1.45;;;;;;;21.67;64.20;99995.16;5297634;33;34000;-84
2023/10/30 09:37:07;;;;;;;3.20;1.55;;;;;;;21.80;65.63;99993.91;5306758;33;33967;-84
2023/10/30 09:40:12;;;;;;;2.53;1.20;;;;;;;21.99;62.61;99997.06;5313504;33;35327;-84
2023/10/30 09:43:15;;;;;;;1.55;0.75;;;;;;;21.99;62.48;99991.59;5305672;33;34869;-84
2023/10/30 09:46:25;;;;;;;1.73;1.30;;;;;;;22.06;63.58;99987.53;5308291;33;34203;-84
2023/10/30 09:49:29;;;;;;;3.20;1.20;;;;;;;22.37;63.01;99971.28;5310116;33;34685;-84
2023/10/30 09:52:33;;;;;;;2.67;1.00;;;;;;;22.19;63.83;99969.81;5312349;33;34505;-84
2023/10/30 09:55:37;;;;;;;4.03;1.10;;;;;;;22.01;62.08;99972.97;5296552;33;33430;-84
2023/10/30 09:58:40;;;;;;;2.28;0.90;;;;;;;21.84;63.35;99986.81;5305616;33;35213;-84
2023/10/30 10:01:43;;;;;;;4.50;1.10;;;;;;;21.70;63.62;99967.22;5299694;33;34030;-84
2023/10/30 10:04:46;;;;;;;2.58;0.90;;;;;;;21.60;63.40;99959.75;5302638;33;33291;-84
2023/10/30 10:07:50;;;;;;;1.75;0.95;;;;;;;21.83;64.39;99953.09;5303714;33;33639;-84
2023/10/30 10:11:02;;;;;;;1.48;0.88;;;;;;;21.59;63.14;99957.31;5307524;33;33927;-84
2023/10/30 10:14:04;;;;;;;4.65;1.20;;;;;;;21.69;63.44;99963.66;5301530;33;33406;-84
2023/10/30 10:17:09;;;;;;;5.40;1.20;;;;;;;21.89;64.69;99962.19;5313693;33;33669;-84
2023/10/30 10:20:12;;;;;;;1.15;1.05;;;;;;;22.00;63.32;99965.84;5309531;33;33990;-83
2023/10/30 10:23:19;;;;;;;4.15;1.05;;;;;;;21.96;64.25;99966.34;5307016;33;33887;-83
2023/10/30 10:26:29;;;;;;;2.30;1.30;;;;;;;21.86;65.69;99970.94;5317455;33;34629;-84
2023/10/30 10:29:33;;;;;;;3.12;1.10;;;;;;;21.96;65.46;99974.56;5295780;33;33606;-84
2023/10/30 10:32:39;;;;;;;3.20;1.05;;;;;;;21.54;63.90;99966.28;5310917;33;34547;-83
2023/10/30 10:35:43;;;;;;;1.30;0.80;;;;;;;21.37;64.71;99968.31;5309661;33;34681;-84
2023/10/30 10:38:58;;;;;;;3.58;1.33;;;;;;;21.53;62.05;99967.38;5309127;33;35397;-83
2023/10/30 10:42:03;;;;;;;4.60;1.23;;;;;;;21.76;61.98;99959.88;5314335;33;33806;-84
2023/10/30 10:45:06;;;;;;;2.47;0.93;;;;;;;22.04;61.09;99964.22;5309579;33;35387;-84
2023/10/30 10:48:09;;;;;;;2.62;0.90;;;;;;;22.35;58.50;99968.00;5318930;33;34465;-84
2023/10/30 10:51:14;;;;;;;3.50;1.10;;;;;;;22.08;59.85;99955.19;5326093;33;34039;-83
2023/10/30 10:54:24;;;;;;;3.62;1.27;;;;;;;22.23;59.83;99965.47;5325250;33;34520;-83
2023/10/30 10:57:28;;;;;;;3.20;0.95;;;;;;;22.18;60.76;99973.66;5325858;33;33461;-83
2023/10/30 11:00:37;;;;;;;2.85;1.10;;;;;;;22.12;60.59;99964.53;5328172;33;33770;-83
2023/10/30 11:03:40;;;;;;;3.95;1.67;;;;;;;22.23;60.97;99954.50;5306438;33;34132;-83
2023/10/30 11:06:50;;;;;;;2.92;1.00;;;;;;;22.67;60.83;99953.31;5298103;33;33826;-83
2023/10/30 11:09:59;;;;;;;3.37;1.10;;;;;;;22.96;58.73;99951.00;5301273;33;34571;-83
2023/10/30 11:13:20;;;;;;;2.70;0.90;;;;;;;22.99;58.59;99948.56;5299856;33;33574;-83
2023/10/30 11:16:26;;;;;;;3.03;1.10;;;;;;;22.81;58.59;99949.00;5301321;33;33534;-83
2023/10/30 11:19:31;;;;;;;3.47;1.00;;;;;;;23.41;56.66;99952.19;5316788;33;33531;-83
2023/10/30 11:22:41;;;;;;;5.62;1.12;;;;;;;23.65;55.78;99945.03;5327424;33;33995;-83
2023/10/30 11:25:50;;;;;;;2.78;1.20;;;;;;;23.53;55.51;99933.50;5335385;33;33623;-82
2023/10/30 11:28:53;;;;;;;6.37;1.27;;;;;;;23.49;57.74;99924.19;5329633;33;34039;-82
2023/10/30 11:32:00;;;;;;;3.75;1.10;;;;;;;24.10;54.61;99931.53;5310506;33;33597;-82
2023/10/30 11:35:04;;;;;;;2.58;1.10;;;;;;;24.58;52.39;99923.72;5310644;33;34288;-82
2023/10/30 11:38:08;;;;;;;2.28;0.95;;;;;;;24.61;51.87;99923.16;5299095;33;33660;-82
2023/10/30 11:41:15;;;;;;;1.95;0.90;;;;;;;24.56;51.22;99901.97;5310459;33;34108;-83
2023/10/30 11:44:19;;;;;;;1.17;0.90;;;;;;;25.46;49.27;99903.66;5307533;33;34259;-82
2023/10/30 11:47:23;;;;;;;1.27;0.82;;;;;;;26.42;46.45;99906.56;5294594;33;34928;-83
2023/10/30 11:50:47;;;;;;;3.10;1.10;;;;;;;27.70;43.68;99901.13;5306090;33;33019;-83
2023/10/30 11:53:51;;;;;;;1.52;1.02;;;;;;;28.86;40.46;99915.75;5295846;33;33437;-89
2023/10/30 11:56:57;;;;;;;1.95;1.12;;;;;;;27.00;41.98;99910.22;5282868;33;33595;-85
2023/10/30 12:00:00;;;;;;;3.50;1.27;;;;;;;25.89;46.27;99909.37;5307677;33;33442;-84
2023/10/30 12:03:08;;;;;;;3.15;1.33;;;;;;;27.12;43.67;99902.34;5302605;33;34031;-83
2023/10/30 12:06:11;;;;;;;2.10;0.93;;;;;;;29.58;37.62;99892.72;5308353;33;33858;-85
2023/10/30 12:09:15;;;;;;;2.42;0.90;;;;;;;31.13;34.33;99888.06;5295530;33;33894;-83
2023/10/30 12:12:19;;;;;;;1.73;0.90;;;;;;;31.25;33.38;99896.56;5307863;33;33750;-83
2023/10/30 12:15:21;;;;;;;1.87;1.00;;;;;;;32.08;32.30;99884.31;5294718;33;33802;-82
2023/10/30 12:18:25;;;;;;;4.65;1.40;;;;;;;32.52;32.00;99879.34;5305702;33;34651;-82
2023/10/30 12:21:30;;;;;;;3.58;1.30;;;;;;;33.11;30.70;99872.88;5281546;33;34555;-83
2023/10/30 12:24:33;;;;;;;1.77;0.73;;;;;;;32.70;30.87;99875.31;5289612;33;33835;-83
2023/10/30 12:27:36;;;;;;;2.75;0.80;;;;;;;32.44;30.95;99878.25;5326139;33;35217;-83
2023/10/30 12:30:41;;;;;;;3.53;1.33;;;;;;;32.69;30.46;99878.44;5313451;33;33919;-83
2023/10/30 12:33:44;;;;;;;1.75;0.65;;;;;;;32.00;31.15;99872.06;5317694;33;34138;-82
2023/10/30 12:36:48;;;;;;;4.97;1.30;;;;;;;31.68;31.92;99876.25;5315817;33;34310;-82
2023/10/30 12:40:08;;;;;;;1.80;0.90;;;;;;;30.13;33.55;99866.56;5318550;33;34281;-83
2023/10/30 12:43:13;;;;;;;3.28;1.00;;;;;;;27.71;38.13;99875.94;5307391;33;33644;-82
2023/10/30 12:46:16;;;;;;;1.15;0.95;;;;;;;25.58;45.05;99858.34;5294826;33;33967;-82
2023/10/30 12:49:19;;;;;;;1.60;1.00;;;;;;;24.82;46.51;99861.38;5298618;33;33507;-82
2023/10/30 12:52:22;;;;;;;5.10;1.50;;;;;;;24.24;49.74;99854.78;5302144;33;33618;-81
2023/10/30 12:55:25;;;;;;;4.15;1.08;;;;;;;23.88;50.32;99852.97;5310856;33;36663;-82
2023/10/30 12:58:28;;;;;;;2.85;0.98;;;;;;;23.25;51.31;99834.06;5293649;33;34588;-82
2023/10/30 13:01:33;;;;;;;2.35;1.20;;;;;;;23.00;52.66;99837.62;5296330;33;33442;-82
2023/10/30 13:04:45;;;;;;;3.75;1.45;;;;;;;22.58;54.52;99833.13;5309131;33;34585;-82
2023/10/30 13:07:49;;;;;;;1.75;0.95;;;;;;;22.34;55.55;99821.81;5302891;33;34862;-82
2023/10/30 13:10:52;;;;;;;1.85;0.82;;;;;;;22.20;56.61;99826.16;5303027;33;33952;-82
2023/10/30 13:13:55;;;;;;;4.22;1.30;;;;;;;21.96;57.22;99828.47;5299789;33;33883;-82
2023/10/30 13:16:58;;;;;;;3.47;1.20;;;;;;;21.93;57.10;99829.81;5303579;33;33647;-82
2023/10/30 13:20:05;;;;;;;3.00;1.10;;;;;;;21.73;61.33;99824.22;5308256;33;33800;-82
2023/10/30 13:23:08;;;;;;;3.42;1.12;;;;;;;21.79;58.40;99822.34;5306935;33;33657;-82
2023/10/30 13:26:12;;;;;;;1.42;1.02;;;;;;;21.74;59.47;99823.16;5307987;33;34572;-81
2023/10/30 13:29:15;;;;;;;2.50;1.27;;;;;;;21.76;59.14;99823.69;5308544;33;34186;-81
2023/10/30 13:32:18;;;;;;;2.70;1.10;;;;;;;21.76;58.42;99814.66;5295640;33;34008;-84
2023/10/30 13:35:23;;;;;;;3.70;1.40;;;;;;;21.66;58.54;99819.00;5310038;33;34016;-87
2023/10/30 13:38:26;;;;;;;2.85;1.05;;;;;;;21.70;57.68;99814.66;5308206;33;33984;-87
2023/10/30 13:41:28;;;;;;;2.62;1.23;;;;;;;21.69;57.18;99801.19;5320196;33;35176;-87
2023/10/30 13:44:32;;;;;;;3.55;1.45;;;;;;;21.74;56.91;99804.78;5325044;33;34300;-83
2023/10/30 13:47:34;;;;;;;6.07;1.58;;;;;;;21.48;58.08;99812.03;5298184;33;34133;-83
2023/10/30 13:50:38;;;;;;;2.65;1.42;;;;;;;21.48;57.79;99814.78;5296634;33;34712;-83
2023/10/30 13:53:41;;;;;;;2.87;1.40;;;;;;;21.50;57.79;99812.59;5295275;33;33477;-83
2023/10/30 13:56:44;;;;;;;3.45;1.40;;;;;;;21.51;58.55;99799.72;5284147;33;33486;-83
2023/10/30 13:59:46;;;;;;;4.40;1.35;;;;;;;21.57;58.12;99801.41;5309470;33;34484;-83
2023/10/30 14:02:50;;;;;;;2.05;1.12;;;;;;;21.47;58.94;99793.13;5301398;33;33925;-82
2023/10/30 14:05:53;;;;;;;3.55;1.30;;;;;;;21.40;59.09;99801.56;5297487;33;34026;-82
2023/10/30 14:08:56;;;;;;;5.87;1.67;;;;;;;21.31;60.13;99799.56;5295723;33;34523;-83
2023/10/30 14:12:00;;;;;;;2.80;1.30;;;;;;;21.27;59.79;99804.75;5295753;33;33313;-83
2023/10/30 14:15:03;;;;;;;5.05;1.33;;;;;;;21.15;61.78;99801.34;5307336;33;34638;-82
2023/10/30 14:18:06;;;;;;;3.22;1.10;;;;;;;21.15;60.76;99791.25;5307632;33;33574;-83
2023/10/30 14:21:09;;;;;;;3.37;0.98;;;;;;;21.04;61.11;99803.19;5318936;33;34521;-82
2023/10/30 14:24:12;;;;;;;3.45;1.40;;;;;;;21.04;62.45;99801.28;5295732;33;35350;-82
2023/10/30 14:27:15;;;;;;;2.70;1.50;;;;;;;20.95;62.42;99794.63;5295709;33;35045;-82
2023/10/30 14:30:21;;;;;;;5.28;1.30;;;;;;;20.99;61.62;99798.47;5308906;33;33551;-82
2023/10/30 14:33:24;;;;;;;2.03;1.37;;;;;;;20.91;61.44;99788.00;5307251;33;34330;-82
2023/10/30 14:36:27;;;;;;;2.97;1.10;;;;;;;20.79;62.65;99792.81;5294559;33;34572;-82
2023/10/30 14:39:32;;;;;;;2.40;1.42;;;;;;;20.62;64.33;99787.47;5295099;33;33755;-82
2023/10/30 14:42:35;;;;;;;2.78;1.48;;;;;;;20.55;63.91;99801.34;5294967;33;34355;-82
2023/10/30 14:45:38;;;;;;;4.12;1.70;;;;;;;20.49;63.99;99793.31;5308222;33;33933;-82
2023/10/30 14:48:41;;;;;;;4.05;1.48;;;;;;;20.45;64.25;99797.69;5307553;33;34009;-82
2023/10/30 14:51:45;;;;;;;4.12;1.40;;;;;;;20.31;65.40;99800.78;5309015;33;34550;-82
2023/10/30 14:54:48;;;;;;;3.62;1.50;;;;;;;20.24;65.41;99807.53;5307255;33;33548;-82
2023/10/30 14:57:51;;;;;;;3.92;1.15;;;;;;;20.21;65.71;99802.56;5280024;33;33922;-82
2023/10/30 15:00:54;;;;;;;1.87;1.02;;;;;;;20.07;66.45;99802.16;5312088;33;33883;-82
2023/10/30 15:03:57;;;;;;;2.60;1.30;;;;;;;20.05;66.50;99807.03;5327039;33;34696;-82
2023/10/30 15:07:00;;;;;;;1.95;1.33;;;;;;;19.94;67.80;99811.53;5303810;33;34840;-82
2023/10/30 15:10:05;;;;;;;5.10;1.80;;;;;;;19.77;71.43;99808.03;5326348;33;33823;-82
2023/10/30 15:13:12;;;;;;;6.20;1.92;;;;;;;19.64;70.91;99811.94;5313785;33;33865;-82
2023/10/30 15:16:15;;;;;;;6.62;1.95;;;;;;;19.44;72.12;99813.28;5325563;33;33959;-82
2023/10/30 15:19:18;;;;;;;3.70;2.40;;;;;;;19.31;73.15;99812.81;5322206;33;168261;-82
2023/10/30 15:22:21;;;;;;;2.92;1.70;;;;;;;19.23;74.07;99809.41;5319140;33;34201;-82
2023/10/30 15:25:24;;;;;;;4.47;1.73;;;;;;;19.02;76.37;99807.44;5317406;33;34999;-81
2023/10/30 15:28:27;;;;;;;5.43;2.10;;;;;;;18.90;76.34;99817.59;5319676;33;34286;-81
2023/10/30 15:31:31;;;;;;;4.53;1.90;;;;;;;18.71;77.30;99823.22;5312339;33;34073;-82
2023/10/30 15:34:33;;;;;;;4.65;2.10;;;;;;;18.64;79.78;99819.81;5294315;33;34293;-82
2023/10/30 15:37:36;;;;;;;7.75;2.03;;;;;;;18.51;80.74;99814.66;5295416;33;33522;-81
2023/10/30 15:40:40;;;;;;;7.60;2.00;;;;;;;18.36;80.92;99810.56;5277738;33;34028;-82
2023/10/30 15:43:43;;;;;;;3.33;1.83;;;;;;;18.29;80.94;99819.97;5305101;33;34481;-81
2023/10/30 15:46:46;;;;;;;6.57;2.30;;;;;;;18.26;81.08;99817.75;5293325;33;34733;-81
2023/10/30 15:50:03;;;;;;;5.07;1.90;;;;;;;18.24;81.21;99817.97;5294589;33;33661;-82
2023/10/30 15:53:08;;;;;;;5.45;2.42;;;;;;;18.24;81.03;99831.59;5307805;33;33809;-82
2023/10/30 15:56:16;;;;;;;3.90;2.20;;;;;;;18.24;80.67;99830.75;5295685;33;33838;-82
2023/10/30 15:59:24;;;;;;;4.22;1.83;;;;;;;18.16;81.83;99834.69;5295913;33;33955;-82
2023/10/30 16:02:27;;;;;;;5.82;2.40;;;;;;;18.27;79.73;99833.00;5305566;33;34804;-82
2023/10/30 16:05:32;;;;;;;5.35;2.12;;;;;;;18.12;80.71;99841.69;5294348;33;33657;-82
2023/10/30 16:08:55;;;;;;;5.00;2.05;;;;;;;18.08;80.84;99835.09;5279066;33;34448;-82
2023/10/30 16:11:58;;;;;;;5.22;1.80;;;;;;;17.94;82.08;99828.25;5283756;33;33983;-82
2023/10/30 16:15:16;;;;;;;3.58;1.62;;;;;;;17.81;82.73;99821.13;5293973;33;33911;-82
2023/10/30 16:18:19;;;;;;;4.20;2.15;;;;;;;17.67;84.73;99812.38;5290077;33;34009;-82
2023/10/30 16:21:24;;;;;;;7.20;2.33;;;;;;;17.66;84.71;99813.44;5288648;33;33796;-82
2023/10/30 16:24:28;;;;;;;3.62;1.92;;;;;;;17.61;84.17;99827.78;5289865;33;33944;-82
2023/10/30 16:27:31;;;;;;;3.15;2.12;;;;;;;17.66;82.79;99832.50;5289226;33;33910;-82
2023/10/30 16:30:34;;;;;;;6.05;2.40;;;;;;;17.56;83.41;99830.38;5300608;33;34548;-81
2023/10/30 16:33:37;;;;;;;2.72;1.75;;;;;;;17.40;84.09;99828.34;5300131;33;34675;-82
2023/10/30 16:36:41;;;;;;;3.95;1.98;;;;;;;17.38;84.30;99831.31;5303225;33;34722;-82
2023/10/30 16:39:44;;;;;;;3.67;2.20;;;;;;;17.36;84.37;99836.16;5304078;33;33997;-82
2023/10/30 16:42:47;;;;;;;7.47;2.62;;;;;;;17.38;85.58;99825.87;5297964;33;34770;-82
2023/10/30 16:45:50;;;;;;;7.20;2.53;;;;;;;17.23;84.98;99822.78;5306155;33;34047;-82
2023/10/30 16:48:53;;;;;;;5.32;2.30;;;;;;;17.08;86.77;99822.41;5294680;33;33870;-81
2023/10/30 16:51:56;;;;;;;5.03;2.20;;;;;;;16.94;87.72;99814.47;5294325;33;33787;-82
2023/10/30 16:54:59;;;;;;;4.05;2.37;;;;;;;16.79;89.38;99816.81;5307070;33;33375;-82
2023/10/30 16:58:02;;;;;;;3.95;2.33;;;;;;;16.71;89.33;99819.81;5295832;33;33572;-83
2023/10/30 17:01:05;;;;;;;8.50;2.80;;;;;;;16.62;90.69;99829.38;5293894;33;33842;-83
2023/10/30 17:04:08;;;;;;;4.50;2.40;;;;;;;16.60;91.33;99818.72;5305704;33;33736;-82
2023/10/30 17:07:15;;;;;;;5.57;2.45;;;;;;;16.51;91.98;99823.63;5293975;33;34976;-83
2023/10/30 17:10:18;;;;;;;3.47;2.20;;;;;;;16.40;93.23;99820.88;5297092;33;33419;-82
2023/10/30 17:13:21;;;;;;;6.32;2.53;;;;;;;16.30;94.61;99829.56;5289883;33;34050;-82
2023/10/30 17:16:24;;;;;;;4.47;2.20;;;;;;;16.22;95.61;99832.59;5293576;33;33896;-82
2023/10/30 17:19:27;;;;;;;5.50;2.10;;;;;;;16.13;96.05;99844.84;5305737;33;34249;-82
2023/10/30 17:22:30;;;;;;;5.00;1.90;;;;;;;16.05;96.72;99835.91;5308805;33;35274;-87
2023/10/30 17:25:33;;;;;;;3.90;2.10;;;;;;;16.00;97.18;99838.50;5309320;33;33792;-86
2023/10/30 17:28:36;;;;;;;6.00;2.92;;;;;;;15.96;99.42;99840.00;5297272;33;34882;-87
2023/10/30 17:31:40;;;;;;;6.72;2.97;;;;;;;15.91;100.00;99845.28;5299238;33;35232;-87
2023/10/30 17:34:42;;;;;;;5.60;2.45;;;;;;;15.84;100.00;99830.94;5297765;33;34155;-83
2023/10/30 17:37:46;;;;;;;2.83;2.05;;;;;;;15.78;100.00;99840.81;5298625;33;34388;-83
2023/10/30 17:40:49;;;;;;;6.47;2.80;;;;;;;15.73;100.00;99839.84;5318108;33;34387;-83
2023/10/30 17:43:52;;;;;;;5.12;2.42;;;;;;;15.67;100.00;99830.69;5289245;33;34041;-83
2023/10/30 17:46:55;;;;;;;5.75;2.33;;;;;;;15.67;100.00;99836.09;5307430;33;33822;-83
2023/10/30 17:49:59;;;;;;;6.68;2.67;;;;;;;15.58;100.00;99841.00;5295425;33;34691;-83
2023/10/30 17:53:02;;;;;;;6.25;2.67;;;;;;;15.52;100.00;99846.50;5317805;33;34637;-83
2023/10/30 17:56:06;;;;;;;4.32;2.65;;;;;;;15.47;100.00;99839.00;5294099;33;34656;-83
2023/10/30 17:59:09;;;;;;;5.28;2.83;;;;;;;15.36;100.00;99835.16;5295185;33;33766;-82
2023/10/30 18:02:12;;;;;;;7.12;3.00;;;;;;;15.27;100.00;99825.66;5310445;33;34680;-82
2023/10/30 18:05:15;;;;;;;5.78;2.92;;;;;;;15.19;100.00;99825.94;5300343;33;33789;-83
